createdAt,value
2018-12-15T00:00:55.897Z,1015.06
2018-12-15T00:01:45.152Z,1015.05
2018-12-15T00:02:43.221Z,1015.07
2018-12-15T00:03:55.411Z,1015.05
2018-12-15T00:05:07.710Z,1015.05
2018-12-15T00:05:59.938Z,1015.04
2018-12-15T00:07:10.802Z,1015.06
2018-12-15T00:08:23.718Z,1015.09
2018-12-15T00:09:22.489Z,1015.12
2018-12-15T00:10:22.799Z,1015.15
2018-12-15T00:11:25.783Z,1015.13
2018-12-15T00:12:45.962Z,1015.18
2018-12-15T00:13:47.306Z,1015.15
2018-12-15T00:14:51.923Z,1015.15
2018-12-15T00:15:52.337Z,1015.22
2018-12-15T00:17:05.577Z,1015.16
2018-12-15T00:18:16.116Z,1015.24
2018-12-15T00:19:06.601Z,1015.17
2018-12-15T00:20:14.906Z,1015.19
2018-12-15T00:21:26.589Z,1015.12
2018-12-15T00:22:23.626Z,1015.12
2018-12-15T00:23:36.401Z,1015.14
2018-12-15T00:24:46.480Z,1015.14
2018-12-15T00:25:41.160Z,1015.15
2018-12-15T00:26:49.671Z,1015.19
2018-12-15T00:27:48.039Z,1015.20
2018-12-15T00:28:46.110Z,1015.21
2018-12-15T00:30:05.323Z,1015.23
2018-12-15T00:31:12.462Z,1015.24
2018-12-15T00:32:16.858Z,1015.22
2018-12-15T00:33:31.611Z,1015.23
2018-12-15T00:34:22.713Z,1015.23
2018-12-15T00:35:41.042Z,1015.23
2018-12-15T00:36:35.459Z,1015.21
2018-12-15T00:37:45.973Z,1015.25
2018-12-15T00:38:59.397Z,1015.24
2018-12-15T00:39:53.479Z,1015.22
2018-12-15T00:40:51.530Z,1015.27
2018-12-15T00:42:05.978Z,1015.30
2018-12-15T00:43:21.870Z,1015.30
2018-12-15T00:44:22.800Z,1015.28
2018-12-15T00:45:08.976Z,1015.34
2018-12-15T00:46:27.725Z,1015.35
2018-12-15T00:47:35.620Z,1015.35
2018-12-15T00:48:32.865Z,1015.35
2018-12-15T00:49:20.482Z,1015.36
2018-12-15T00:50:44.454Z,1015.39
2018-12-15T00:52:03.614Z,1015.41
2018-12-15T00:53:09.150Z,1015.36
2018-12-15T00:54:25.444Z,1015.35
2018-12-15T00:55:12.342Z,1015.39
2018-12-15T00:55:56.784Z,1015.40
2018-12-15T00:57:34.171Z,1015.40
2018-12-15T00:58:30.185Z,1015.43
2018-12-15T00:59:31.729Z,1015.42
2018-12-15T01:00:43.825Z,1015.44
2018-12-15T01:01:38.813Z,1015.40
2018-12-15T01:02:57.459Z,1015.45
2018-12-15T01:04:02.687Z,1015.42
2018-12-15T01:04:53.590Z,1015.44
2018-12-15T01:06:02.611Z,1015.44
2018-12-15T01:07:23.404Z,1015.46
2018-12-15T01:08:32.115Z,1015.47
2018-12-15T01:09:22.809Z,1015.47
2018-12-15T01:10:38.994Z,1015.47
2018-12-15T01:11:38.906Z,1015.48
2018-12-15T01:12:28.363Z,1015.49
2018-12-15T01:13:58.993Z,1015.50
2018-12-15T01:15:08.729Z,1015.53
2018-12-15T01:15:53.791Z,1015.55
2018-12-15T01:16:59.299Z,1015.53
2018-12-15T01:18:10.703Z,1015.51
2018-12-15T01:19:16.033Z,1015.53
2018-12-15T01:20:24.396Z,1015.55
2018-12-15T01:21:39.706Z,1015.57
2018-12-15T01:22:38.280Z,1015.56
2018-12-15T01:23:34.292Z,1015.54
2018-12-15T01:24:50.174Z,1015.55
2018-12-15T01:26:05.857Z,1015.57
2018-12-15T01:27:12.102Z,1015.58
2018-12-15T01:28:10.689Z,1015.59
2018-12-15T01:29:46.735Z,1015.63
2018-12-15T01:30:32.454Z,1015.61
2018-12-15T01:31:35.593Z,1015.63
2018-12-15T01:32:37.952Z,1015.65
2018-12-15T01:33:49.674Z,1015.61
2018-12-15T01:34:57.327Z,1015.67
2018-12-15T01:36:01.337Z,1015.70
2018-12-15T01:37:22.227Z,1015.68
2018-12-15T01:38:25.204Z,1015.69
2018-12-15T01:39:06.986Z,1015.71
2018-12-15T01:40:19.077Z,1015.70
2018-12-15T01:41:49.727Z,1015.74
2018-12-15T01:42:35.683Z,1015.75
2018-12-15T01:43:44.806Z,1015.77
2018-12-15T01:44:51.982Z,1015.74
2018-12-15T01:46:05.717Z,1015.75
2018-12-15T01:46:53.537Z,1015.78
2018-12-15T01:48:12.385Z,1015.72
2018-12-15T01:49:04.920Z,1015.81
2018-12-15T01:50:14.245Z,1015.79
2018-12-15T01:51:20.912Z,1015.84
2018-12-15T01:52:24.506Z,1015.83
2018-12-15T01:53:45.202Z,1015.83
2018-12-15T01:54:52.169Z,1015.88
2018-12-15T01:55:50.234Z,1015.87
2018-12-15T01:56:36.212Z,1015.87
2018-12-15T01:57:52.811Z,1015.89
2018-12-15T01:59:05.823Z,1015.86
2018-12-15T02:00:01.839Z,1015.88
2018-12-15T02:01:21.817Z,1015.88
2018-12-15T02:02:16.295Z,1015.87
2018-12-15T02:03:17.325Z,1015.92
2018-12-15T02:04:34.233Z,1015.88
2018-12-15T02:05:37.108Z,1015.95
2018-12-15T02:06:29.435Z,1015.94
2018-12-15T02:07:34.464Z,1015.95
2018-12-15T02:08:48.503Z,1015.95
2018-12-15T02:09:57.830Z,1015.97
2018-12-15T02:10:54.162Z,1015.97
2018-12-15T02:11:54.881Z,1015.98
2018-12-15T02:13:24.484Z,1015.98
2018-12-15T02:14:06.878Z,1015.99
2018-12-15T02:15:13.848Z,1015.99
2018-12-15T02:16:22.460Z,1015.97
2018-12-15T02:17:34.346Z,1015.95
2018-12-15T02:18:45.415Z,1015.94
2018-12-15T02:19:45.116Z,1015.93
2018-12-15T02:20:42.063Z,1015.91
2018-12-15T02:21:45.338Z,1015.90
2018-12-15T02:22:54.975Z,1015.90
2018-12-15T02:24:12.902Z,1015.90
2018-12-15T02:25:21.820Z,1015.87
2018-12-15T02:26:18.651Z,1015.84
2018-12-15T02:27:36.171Z,1015.85
2018-12-15T02:28:13.757Z,1015.83
2018-12-15T02:29:43.460Z,1015.92
2018-12-15T02:30:32.517Z,1015.95
2018-12-15T02:31:30.265Z,1015.88
2018-12-15T02:32:56.497Z,1015.88
2018-12-15T02:33:49.430Z,1015.91
2018-12-15T02:35:12.481Z,1015.84
2018-12-15T02:35:50.989Z,1015.88
2018-12-15T02:37:08.093Z,1015.88
2018-12-15T02:38:32.170Z,1015.83
2018-12-15T02:39:09.570Z,1015.87
2018-12-15T02:40:33.829Z,1015.87
2018-12-15T02:41:38.257Z,1015.86
2018-12-15T02:42:25.138Z,1015.88
2018-12-15T02:43:48.804Z,1015.84
2018-12-15T02:44:57.320Z,1015.86
2018-12-15T02:45:53.632Z,1015.88
2018-12-15T02:47:01.945Z,1015.89
2018-12-15T02:48:05.322Z,1015.82
2018-12-15T02:49:02.053Z,1015.92
2018-12-15T02:50:17.014Z,1015.90
2018-12-15T02:51:25.009Z,1015.90
2018-12-15T02:52:39.866Z,1015.89
2018-12-15T02:53:46.025Z,1015.89
2018-12-15T02:54:30.464Z,1015.93
2018-12-15T02:55:51.976Z,1015.89
2018-12-15T02:56:41.538Z,1015.89
2018-12-15T02:57:46.259Z,1015.92
2018-12-15T02:58:47.392Z,1015.89
2018-12-15T03:00:02.764Z,1015.91
2018-12-15T03:01:16.394Z,1015.87
2018-12-15T03:02:29.109Z,1015.87
2018-12-15T03:03:11.600Z,1015.84
2018-12-15T03:04:41.414Z,1015.81
2018-12-15T03:05:25.996Z,1015.80
2018-12-15T03:06:31.694Z,1015.81
2018-12-15T03:07:38.155Z,1015.82
2018-12-15T03:08:41.134Z,1015.78
2018-12-15T03:09:58.962Z,1015.75
2018-12-15T03:11:04.600Z,1015.75
2018-12-15T03:12:19.871Z,1015.78
2018-12-15T03:12:55.404Z,1015.79
2018-12-15T03:14:13.537Z,1015.76
2018-12-15T03:15:30.954Z,1015.80
2018-12-15T03:16:33.317Z,1015.81
2018-12-15T03:17:24.519Z,1015.76
2018-12-15T03:18:40.400Z,1015.78
2018-12-15T03:19:31.193Z,1015.76
2018-12-15T03:20:51.274Z,1015.71
2018-12-15T03:21:50.168Z,1015.70
2018-12-15T03:23:23.586Z,1015.75
2018-12-15T03:24:13.522Z,1015.74
2018-12-15T03:25:13.020Z,1015.68
2018-12-15T03:26:16.209Z,1015.73
2018-12-15T03:27:27.681Z,1015.73
2018-12-15T03:28:44.276Z,1015.77
2018-12-15T03:29:22.066Z,1015.77
2018-12-15T03:30:25.759Z,1015.74
2018-12-15T03:31:48.301Z,1015.74
2018-12-15T03:32:56.191Z,1015.70
2018-12-15T03:33:48.419Z,1015.67
2018-12-15T03:35:14.034Z,1015.68
2018-12-15T03:36:00.416Z,1015.65
2018-12-15T03:37:17.227Z,1015.61
2018-12-15T03:38:34.227Z,1015.64
2018-12-15T03:39:39.867Z,1015.65
2018-12-15T03:40:30.969Z,1015.68
2018-12-15T03:41:43.775Z,1015.58
2018-12-15T03:42:36.721Z,1015.63
2018-12-15T03:43:51.783Z,1015.58
2018-12-15T03:44:59.676Z,1015.61
2018-12-15T03:46:04.395Z,1015.62
2018-12-15T03:46:58.467Z,1015.60
2018-12-15T03:48:20.695Z,1015.59
2018-12-15T03:49:20.497Z,1015.59
2018-12-15T03:50:21.532Z,1015.60
2018-12-15T03:51:24.404Z,1015.54
2018-12-15T03:52:39.160Z,1015.55
2018-12-15T03:53:29.847Z,1015.57
2018-12-15T03:54:42.862Z,1015.54
2018-12-15T03:55:42.768Z,1015.50
2018-12-15T03:56:55.679Z,1015.50
2018-12-15T03:57:51.800Z,1015.51
2018-12-15T03:59:10.964Z,1015.55
2018-12-15T03:59:57.753Z,1015.51
2018-12-15T04:01:02.454Z,1015.49
2018-12-15T04:02:26.854Z,1015.49
2018-12-15T04:03:16.009Z,1015.47
2018-12-15T04:04:29.432Z,1015.45
2018-12-15T04:05:46.235Z,1015.50
2018-12-15T04:06:40.102Z,1015.45
2018-12-15T04:07:45.134Z,1015.47
2018-12-15T04:08:46.262Z,1015.45
2018-12-15T04:10:05.013Z,1015.49
2018-12-15T04:11:02.872Z,1015.46
2018-12-15T04:12:11.789Z,1015.46
2018-12-15T04:12:56.029Z,1015.43
2018-12-15T04:14:38.536Z,1015.38
2018-12-15T04:15:24.522Z,1015.41
2018-12-15T04:16:43.365Z,1015.40
2018-12-15T04:17:31.500Z,1015.38
2018-12-15T04:18:53.450Z,1015.36
2018-12-15T04:19:43.186Z,1015.31
2018-12-15T04:20:44.729Z,1015.32
2018-12-15T04:22:15.052Z,1015.31
2018-12-15T04:22:52.428Z,1015.33
2018-12-15T04:24:10.056Z,1015.36
2018-12-15T04:25:08.830Z,1015.33
2018-12-15T04:26:30.649Z,1015.33
2018-12-15T04:27:18.882Z,1015.32
2018-12-15T04:28:21.761Z,1015.31
2018-12-15T04:29:21.768Z,1015.35
2018-12-15T04:30:45.533Z,1015.33
2018-12-15T04:31:44.722Z,1015.33
2018-12-15T04:32:59.067Z,1015.35
2018-12-15T04:33:50.064Z,1015.36
2018-12-15T04:34:57.240Z,1015.40
2018-12-15T04:36:19.164Z,1015.32
2018-12-15T04:37:07.906Z,1015.39
2018-12-15T04:38:27.781Z,1015.37
2018-12-15T04:39:15.193Z,1015.38
2018-12-15T04:40:11.515Z,1015.38
2018-12-15T04:41:34.873Z,1015.37
2018-12-15T04:42:38.572Z,1015.41
2018-12-15T04:43:41.649Z,1015.35
2018-12-15T04:44:49.646Z,1015.35
2018-12-15T04:45:55.495Z,1015.36
2018-12-15T04:47:03.181Z,1015.36
2018-12-15T04:48:11.157Z,1015.36
2018-12-15T04:49:10.755Z,1015.38
2018-12-15T04:50:12.121Z,1015.36
2018-12-15T04:51:18.071Z,1015.39
2018-12-15T04:52:32.614Z,1015.44
2018-12-15T04:53:29.757Z,1015.38
2018-12-15T04:54:33.870Z,1015.35
2018-12-15T04:55:38.994Z,1015.38
2018-12-15T04:56:49.649Z,1015.36
2018-12-15T04:57:57.849Z,1015.35
2018-12-15T04:59:05.335Z,1015.31
2018-12-15T05:00:13.599Z,1015.35
2018-12-15T05:01:10.378Z,1015.34
2018-12-15T05:02:26.456Z,1015.31
2018-12-15T05:03:29.332Z,1015.32
2018-12-15T05:04:33.029Z,1015.31
2018-12-15T05:05:41.946Z,1015.31
2018-12-15T05:06:39.191Z,1015.31
2018-12-15T05:07:44.738Z,1015.30
2018-12-15T05:08:53.647Z,1015.35
2018-12-15T05:10:02.665Z,1015.33
2018-12-15T05:11:09.533Z,1015.36
2018-12-15T05:12:09.441Z,1015.41
2018-12-15T05:13:16.310Z,1015.39
2018-12-15T05:14:19.289Z,1015.45
2018-12-15T05:15:31.074Z,1015.43
2018-12-15T05:16:33.441Z,1015.42
2018-12-15T05:17:42.254Z,1015.41
2018-12-15T05:18:38.267Z,1015.41
2018-12-15T05:19:50.256Z,1015.42
2018-12-15T05:20:52.006Z,1015.41
2018-12-15T05:22:02.980Z,1015.41
2018-12-15T05:22:56.632Z,1015.37
2018-12-15T05:24:10.463Z,1015.41
2018-12-15T05:25:12.112Z,1015.37
2018-12-15T05:26:23.700Z,1015.41
2018-12-15T05:27:24.211Z,1015.38
2018-12-15T05:28:32.409Z,1015.38
2018-12-15T05:29:38.050Z,1015.31
2018-12-15T05:30:41.235Z,1015.35
2018-12-15T05:31:43.804Z,1015.39
2018-12-15T05:32:48.012Z,1015.38
2018-12-15T05:33:53.960Z,1015.39
2018-12-15T05:35:05.029Z,1015.39
2018-12-15T05:36:11.699Z,1015.39
2018-12-15T05:37:06.788Z,1015.37
2018-12-15T05:38:25.536Z,1015.38
2018-12-15T05:39:24.215Z,1015.34
2018-12-15T05:40:38.257Z,1015.34
2018-12-15T05:41:29.147Z,1015.33
2018-12-15T05:42:58.237Z,1015.37
2018-12-15T05:43:40.324Z,1015.36
2018-12-15T05:44:38.082Z,1015.38
2018-12-15T05:45:46.180Z,1015.37
2018-12-15T05:47:03.391Z,1015.32
2018-12-15T05:47:59.917Z,1015.31
2018-12-15T05:49:12.834Z,1015.33
2018-12-15T05:50:11.012Z,1015.28
2018-12-15T05:51:29.133Z,1015.34
2018-12-15T05:52:33.645Z,1015.32
2018-12-15T05:53:32.326Z,1015.30
2018-12-15T05:54:46.160Z,1015.36
2018-12-15T05:55:54.562Z,1015.36
2018-12-15T05:56:46.891Z,1015.38
2018-12-15T05:58:05.335Z,1015.36
2018-12-15T05:59:07.287Z,1015.39
2018-12-15T05:59:59.102Z,1015.34
2018-12-15T06:01:19.387Z,1015.32
2018-12-15T06:02:29.841Z,1015.31
2018-12-15T06:03:29.232Z,1015.38
2018-12-15T06:04:25.563Z,1015.35
2018-12-15T06:05:37.851Z,1015.37
2018-12-15T06:06:42.776Z,1015.38
2018-12-15T06:07:46.165Z,1015.37
2018-12-15T06:08:45.460Z,1015.37
2018-12-15T06:09:50.073Z,1015.39
2018-12-15T06:11:14.044Z,1015.39
2018-12-15T06:12:09.034Z,1015.42
2018-12-15T06:13:13.963Z,1015.43
2018-12-15T06:14:10.086Z,1015.43
2018-12-15T06:15:28.622Z,1015.44
2018-12-15T06:16:25.560Z,1015.43
2018-12-15T06:17:31.920Z,1015.46
2018-12-15T06:18:42.167Z,1015.47
2018-12-15T06:19:48.021Z,1015.50
2018-12-15T06:20:56.213Z,1015.45
2018-12-15T06:22:12.198Z,1015.44
2018-12-15T06:23:08.932Z,1015.45
2018-12-15T06:24:05.663Z,1015.44
2018-12-15T06:25:15.088Z,1015.50
2018-12-15T06:26:20.013Z,1015.52
2018-12-15T06:27:24.628Z,1015.47
2018-12-15T06:28:31.701Z,1015.53
2018-12-15T06:29:33.769Z,1015.51
2018-12-15T06:30:49.026Z,1015.50
2018-12-15T06:31:57.738Z,1015.52
2018-12-15T06:32:57.849Z,1015.48
2018-12-15T06:33:58.574Z,1015.50
2018-12-15T06:34:58.890Z,1015.51
2018-12-15T06:36:13.448Z,1015.53
2018-12-15T06:37:14.575Z,1015.50
2018-12-15T06:38:22.367Z,1015.52
2018-12-15T06:39:24.833Z,1015.51
2018-12-15T06:40:32.316Z,1015.52
2018-12-15T06:41:37.959Z,1015.51
2018-12-15T06:42:35.000Z,1015.50
2018-12-15T06:43:44.942Z,1015.48
2018-12-15T06:45:03.894Z,1015.47
2018-12-15T06:45:58.886Z,1015.47
2018-12-15T06:47:05.966Z,1015.45
2018-12-15T06:48:00.130Z,1015.48
2018-12-15T06:49:13.451Z,1015.49
2018-12-15T06:50:17.759Z,1015.43
2018-12-15T06:51:24.631Z,1015.41
2018-12-15T06:52:32.632Z,1015.42
2018-12-15T06:53:30.278Z,1015.40
2018-12-15T06:54:36.126Z,1015.38
2018-12-15T06:55:45.351Z,1015.40
2018-12-15T06:56:45.152Z,1015.43
2018-12-15T06:57:50.794Z,1015.41
2018-12-15T06:58:58.994Z,1015.45
2018-12-15T07:00:04.533Z,1015.52
2018-12-15T07:01:08.636Z,1015.52
2018-12-15T07:02:15.405Z,1015.54
2018-12-15T07:03:19.717Z,1015.53
2018-12-15T07:04:26.897Z,1015.54
2018-12-15T07:05:28.031Z,1015.49
2018-12-15T07:06:34.491Z,1015.48
2018-12-15T07:07:42.384Z,1015.52
2018-12-15T07:08:51.205Z,1015.48
2018-12-15T07:09:51.333Z,1015.47
2018-12-15T07:10:55.540Z,1015.45
2018-12-15T07:12:04.414Z,1015.43
2018-12-15T07:13:09.779Z,1015.40
2018-12-15T07:14:11.007Z,1015.39
2018-12-15T07:15:24.739Z,1015.37
2018-12-15T07:16:26.384Z,1015.35
2018-12-15T07:17:28.749Z,1015.38
2018-12-15T07:18:35.619Z,1015.34
2018-12-15T07:19:50.274Z,1015.37
2018-12-15T07:20:43.728Z,1015.36
2018-12-15T07:21:53.263Z,1015.37
2018-12-15T07:22:52.043Z,1015.39
2018-12-15T07:23:59.833Z,1015.36
2018-12-15T07:25:14.894Z,1015.43
2018-12-15T07:26:20.536Z,1015.39
2018-12-15T07:27:21.671Z,1015.42
2018-12-15T07:28:34.796Z,1015.42
2018-12-15T07:29:30.392Z,1015.41
2018-12-15T07:30:33.267Z,1015.45
2018-12-15T07:31:53.452Z,1015.46
2018-12-15T07:32:46.187Z,1015.51
2018-12-15T07:33:48.254Z,1015.45
2018-12-15T07:35:01.987Z,1015.50
2018-12-15T07:36:07.628Z,1015.54
2018-12-15T07:37:19.100Z,1015.52
2018-12-15T07:38:16.546Z,1015.54
2018-12-15T07:39:23.113Z,1015.56
2018-12-15T07:40:29.154Z,1015.52
2018-12-15T07:41:37.767Z,1015.54
2018-12-15T07:42:36.645Z,1015.58
2018-12-15T07:43:47.099Z,1015.53
2018-12-15T07:44:51.416Z,1015.52
2018-12-15T07:46:05.855Z,1015.49
2018-12-15T07:47:01.461Z,1015.54
2018-12-15T07:47:59.318Z,1015.52
2018-12-15T07:49:11.101Z,1015.54
2018-12-15T07:50:16.130Z,1015.56
2018-12-15T07:51:21.055Z,1015.52
2018-12-15T07:52:30.073Z,1015.57
2018-12-15T07:53:42.677Z,1015.54
2018-12-15T07:54:33.880Z,1015.51
2018-12-15T07:55:50.889Z,1015.54
2018-12-15T07:56:40.344Z,1015.51
2018-12-15T07:57:56.125Z,1015.54
2018-12-15T07:59:07.501Z,1015.52
2018-12-15T08:00:06.174Z,1015.55
2018-12-15T08:01:07.719Z,1015.54
2018-12-15T08:02:22.067Z,1015.55
2018-12-15T08:03:17.977Z,1015.56
2018-12-15T08:04:28.558Z,1015.54
2018-12-15T08:05:31.922Z,1015.58
2018-12-15T08:06:41.661Z,1015.57
2018-12-15T08:07:51.193Z,1015.58
2018-12-15T08:08:45.878Z,1015.61
2018-12-15T08:09:58.377Z,1015.59
2018-12-15T08:11:05.248Z,1015.59
2018-12-15T08:12:13.857Z,1015.62
2018-12-15T08:13:06.186Z,1015.58
2018-12-15T08:14:13.260Z,1015.63
2018-12-15T08:15:17.981Z,1015.62
2018-12-15T08:16:25.677Z,1015.64
2018-12-15T08:17:28.749Z,1015.66
2018-12-15T08:18:44.735Z,1015.69
2018-12-15T08:19:40.033Z,1015.65
2018-12-15T08:20:56.526Z,1015.67
2018-12-15T08:22:02.586Z,1015.66
2018-12-15T08:23:02.282Z,1015.66
2018-12-15T08:24:04.337Z,1015.72
2018-12-15T08:25:11.308Z,1015.67
2018-12-15T08:26:14.088Z,1015.69
2018-12-15T08:27:24.330Z,1015.74
2018-12-15T08:28:37.035Z,1015.70
2018-12-15T08:29:31.821Z,1015.71
2018-12-15T08:30:33.877Z,1015.66
2018-12-15T08:31:53.858Z,1015.71
2018-12-15T08:32:52.741Z,1015.69
2018-12-15T08:33:56.842Z,1015.73
2018-12-15T08:35:00.537Z,1015.71
2018-12-15T08:36:02.082Z,1015.76
2018-12-15T08:37:13.569Z,1015.79
2018-12-15T08:38:19.405Z,1015.74
2018-12-15T08:39:23.102Z,1015.74
2018-12-15T08:40:28.944Z,1015.79
2018-12-15T08:41:41.239Z,1015.69
2018-12-15T08:42:37.153Z,1015.75
2018-12-15T08:43:52.112Z,1015.75
2018-12-15T08:44:53.349Z,1015.71
2018-12-15T08:45:47.931Z,1015.72
2018-12-15T08:46:59.816Z,1015.72
2018-12-15T08:48:12.932Z,1015.73
2018-12-15T08:49:10.585Z,1015.72
2018-12-15T08:50:20.119Z,1015.72
2018-12-15T08:51:23.816Z,1015.71
2018-12-15T08:52:21.059Z,1015.72
2018-12-15T08:53:28.440Z,1015.75
2018-12-15T08:54:33.472Z,1015.74
2018-12-15T08:55:38.388Z,1015.70
2018-12-15T08:56:47.101Z,1015.72
2018-12-15T08:57:55.931Z,1015.72
2018-12-15T08:59:08.110Z,1015.78
2018-12-15T09:00:13.855Z,1015.77
2018-12-15T09:01:21.756Z,1015.81
2018-12-15T09:02:26.167Z,1015.78
2018-12-15T09:03:15.006Z,1015.82
2018-12-15T09:04:39.388Z,1015.84
2018-12-15T09:05:37.245Z,1015.84
2018-12-15T09:06:33.977Z,1015.82
2018-12-15T09:07:52.010Z,1015.86
2018-12-15T09:08:48.332Z,1015.85
2018-12-15T09:09:53.153Z,1015.83
2018-12-15T09:10:56.128Z,1015.79
2018-12-15T09:12:13.032Z,1015.85
2018-12-15T09:13:16.585Z,1015.83
2018-12-15T09:14:19.503Z,1015.85
2018-12-15T09:15:28.933Z,1015.87
2018-12-15T09:16:27.405Z,1015.86
2018-12-15T09:17:27.617Z,1015.85
2018-12-15T09:18:41.248Z,1015.87
2018-12-15T09:19:52.314Z,1015.84
2018-12-15T09:20:52.432Z,1015.85
2018-12-15T09:22:00.010Z,1015.86
2018-12-15T09:23:03.818Z,1015.84
2018-12-15T09:24:03.512Z,1015.83
2018-12-15T09:25:16.123Z,1015.82
2018-12-15T09:26:19.607Z,1015.83
2018-12-15T09:27:25.351Z,1015.84
2018-12-15T09:28:34.889Z,1015.89
2018-12-15T09:29:48.518Z,1015.89
2018-12-15T09:30:37.055Z,1015.88
2018-12-15T09:31:48.327Z,1015.91
2018-12-15T09:33:04.311Z,1015.92
2018-12-15T09:33:56.944Z,1015.93
2018-12-15T09:35:04.233Z,1015.93
2018-12-15T09:36:09.556Z,1015.95
2018-12-15T09:37:13.765Z,1015.98
2018-12-15T09:38:13.679Z,1015.99
2018-12-15T09:39:18.290Z,1016.02
2018-12-15T09:40:31.414Z,1016.03
2018-12-15T09:41:36.329Z,1016.03
2018-12-15T09:42:33.470Z,1016.03
2018-12-15T09:43:45.458Z,1016.00
2018-12-15T09:44:45.468Z,1016.01
2018-12-15T09:46:02.272Z,1016.01
2018-12-15T09:47:00.848Z,1015.99
2018-12-15T09:48:13.760Z,1016.07
2018-12-15T09:49:17.544Z,1016.03
2018-12-15T09:50:19.718Z,1016.02
2018-12-15T09:51:30.805Z,1015.98
2018-12-15T09:52:31.412Z,1015.99
2018-12-15T09:53:36.539Z,1015.97
2018-12-15T09:54:43.466Z,1015.94
2018-12-15T09:55:41.170Z,1015.96
2018-12-15T09:56:55.201Z,1015.92
2018-12-15T09:57:59.714Z,1015.91
2018-12-15T09:59:17.095Z,1015.94
2018-12-15T10:00:08.128Z,1015.89
2018-12-15T10:01:07.731Z,1015.92
2018-12-15T10:02:18.900Z,1015.88
2018-12-15T10:03:22.799Z,1015.87
2018-12-15T10:04:34.581Z,1015.86
2018-12-15T10:05:36.840Z,1015.89
2018-12-15T10:06:36.541Z,1015.86
2018-12-15T10:07:41.570Z,1015.84
2018-12-15T10:08:52.537Z,1015.85
2018-12-15T10:10:01.044Z,1015.81
2018-12-15T10:11:00.135Z,1015.84
2018-12-15T10:12:09.047Z,1015.83
2018-12-15T10:13:27.700Z,1015.83
2018-12-15T10:14:22.479Z,1015.81
2018-12-15T10:15:22.898Z,1015.82
2018-12-15T10:16:30.589Z,1015.82
2018-12-15T10:17:41.140Z,1015.78
2018-12-15T10:18:39.616Z,1015.78
2018-12-15T10:19:41.364Z,1015.73
2018-12-15T10:20:51.830Z,1015.72
2018-12-15T10:22:01.042Z,1015.68
2018-12-15T10:23:07.093Z,1015.69
2018-12-15T10:24:13.449Z,1015.63
2018-12-15T10:25:16.436Z,1015.62
2018-12-15T10:26:21.773Z,1015.62
2018-12-15T10:27:28.226Z,1015.62
2018-12-15T10:28:38.684Z,1015.60
2018-12-15T10:29:33.160Z,1015.63
2018-12-15T10:30:41.665Z,1015.56
2018-12-15T10:31:49.661Z,1015.51
2018-12-15T10:32:53.869Z,1015.49
2018-12-15T10:33:51.420Z,1015.45
2018-12-15T10:35:08.427Z,1015.43
2018-12-15T10:36:10.380Z,1015.42
2018-12-15T10:37:24.111Z,1015.40
2018-12-15T10:38:24.016Z,1015.36
2018-12-15T10:39:36.827Z,1015.42
2018-12-15T10:40:36.014Z,1015.36
2018-12-15T10:41:34.281Z,1015.38
2018-12-15T10:42:46.474Z,1015.36
2018-12-15T10:43:52.425Z,1015.30
2018-12-15T10:44:48.946Z,1015.32
2018-12-15T10:45:58.390Z,1015.35
2018-12-15T10:47:05.449Z,1015.32
2018-12-15T10:48:11.502Z,1015.34
2018-12-15T10:49:20.213Z,1015.28
2018-12-15T10:50:30.773Z,1015.27
2018-12-15T10:51:28.739Z,1015.24
2018-12-15T10:52:36.531Z,1015.23
2018-12-15T10:53:31.514Z,1015.18
2018-12-15T10:54:48.114Z,1015.13
2018-12-15T10:55:51.703Z,1015.12
2018-12-15T10:56:51.611Z,1015.10
2018-12-15T10:58:00.528Z,1015.08
2018-12-15T10:59:09.760Z,1015.07
2018-12-15T11:00:12.329Z,1015.05
2018-12-15T11:01:21.139Z,1015.07
2018-12-15T11:02:26.985Z,1015.06
2018-12-15T11:03:29.252Z,1015.01
2018-12-15T11:04:40.931Z,1014.98
2018-12-15T11:05:35.926Z,1014.98
2018-12-15T11:06:46.280Z,1015.02
2018-12-15T11:07:50.590Z,1015.00
2018-12-15T11:09:02.375Z,1015.00
2018-12-15T11:10:11.808Z,1015.04
2018-12-15T11:11:16.611Z,1015.04
2018-12-15T11:12:19.092Z,1015.06
2018-12-15T11:13:32.303Z,1015.03
2018-12-15T11:14:28.114Z,1015.05
2018-12-15T11:15:29.964Z,1015.03
2018-12-15T11:16:39.499Z,1015.07
2018-12-15T11:17:56.506Z,1015.08
2018-12-15T11:19:01.942Z,1015.06
2018-12-15T11:19:55.704Z,1015.01
2018-12-15T11:20:57.123Z,1014.99
2018-12-15T11:22:03.816Z,1015.00
2018-12-15T11:23:08.633Z,1014.99
2018-12-15T11:24:26.358Z,1015.01
2018-12-15T11:25:24.934Z,1015.00
2018-12-15T11:26:25.558Z,1014.99
2018-12-15T11:27:36.725Z,1014.98
2018-12-15T11:28:39.394Z,1015.00
2018-12-15T11:29:46.161Z,1015.02
2018-12-15T11:30:53.951Z,1014.94
2018-12-15T11:31:56.727Z,1014.95
2018-12-15T11:32:59.297Z,1014.93
2018-12-15T11:34:10.772Z,1014.90
2018-12-15T11:35:12.624Z,1014.87
2018-12-15T11:36:11.204Z,1014.84
2018-12-15T11:37:18.288Z,1014.81
2018-12-15T11:38:27.917Z,1014.76
2018-12-15T11:39:32.835Z,1014.75
2018-12-15T11:40:36.945Z,1014.73
2018-12-15T11:41:55.175Z,1014.68
2018-12-15T11:42:54.172Z,1014.69
2018-12-15T11:44:05.536Z,1014.68
2018-12-15T11:45:03.709Z,1014.70
2018-12-15T11:46:09.654Z,1014.69
2018-12-15T11:47:12.024Z,1014.68
2018-12-15T11:48:22.880Z,1014.64
2018-12-15T11:49:21.558Z,1014.59
2018-12-15T11:50:30.271Z,1014.61
2018-12-15T11:51:38.369Z,1014.55
2018-12-15T11:52:41.142Z,1014.51
2018-12-15T11:53:42.384Z,1014.52
2018-12-15T11:54:48.125Z,1014.48
2018-12-15T11:55:58.067Z,1014.44
2018-12-15T11:57:00.852Z,1014.50
2018-12-15T11:58:05.764Z,1014.45
2018-12-15T11:59:12.945Z,1014.44
2018-12-15T12:00:15.713Z,1014.37
2018-12-15T12:01:20.035Z,1014.39
2018-12-15T12:02:31.829Z,1014.32
2018-12-15T12:03:34.894Z,1014.31
2018-12-15T12:04:42.386Z,1014.25
2018-12-15T12:05:44.126Z,1014.28
2018-12-15T12:06:46.797Z,1014.22
2018-12-15T12:08:02.065Z,1014.21
2018-12-15T12:09:03.919Z,1014.23
2018-12-15T12:10:01.995Z,1014.22
2018-12-15T12:11:15.926Z,1014.23
2018-12-15T12:12:25.627Z,1014.20
2018-12-15T12:13:31.504Z,1014.20
2018-12-15T12:14:28.753Z,1014.19
2018-12-15T12:15:32.750Z,1014.17
2018-12-15T12:16:37.784Z,1014.18
2018-12-15T12:17:44.129Z,1014.11
2018-12-15T12:18:52.347Z,1014.08
2018-12-15T12:19:56.133Z,1014.06
2018-12-15T12:20:57.984Z,1014.01
2018-12-15T12:22:04.748Z,1013.99
2018-12-15T12:23:06.907Z,1013.97
2018-12-15T12:24:12.343Z,1013.95
2018-12-15T12:25:30.679Z,1013.91
2018-12-15T12:26:22.803Z,1013.90
2018-12-15T12:27:37.454Z,1013.90
2018-12-15T12:28:34.597Z,1013.89
2018-12-15T12:29:54.373Z,1013.90
2018-12-15T12:30:50.384Z,1013.93
2018-12-15T12:31:57.354Z,1013.93
2018-12-15T12:33:07.399Z,1013.90
2018-12-15T12:34:09.249Z,1013.82
2018-12-15T12:35:19.499Z,1013.81
2018-12-15T12:36:16.126Z,1013.76
2018-12-15T12:37:22.993Z,1013.77
2018-12-15T12:38:32.834Z,1013.79
2018-12-15T12:39:35.609Z,1013.73
2018-12-15T12:40:38.796Z,1013.79
2018-12-15T12:41:54.578Z,1013.75
2018-12-15T12:42:54.274Z,1013.74
2018-12-15T12:44:12.096Z,1013.70
2018-12-15T12:45:06.678Z,1013.73
2018-12-15T12:46:09.062Z,1013.73
2018-12-15T12:47:17.139Z,1013.68
2018-12-15T12:48:18.481Z,1013.68
2018-12-15T12:49:27.810Z,1013.67
2018-12-15T12:50:32.429Z,1013.68
2018-12-15T12:51:39.516Z,1013.67
2018-12-15T12:52:38.599Z,1013.68
2018-12-15T12:53:45.356Z,1013.71
2018-12-15T12:54:56.641Z,1013.67
2018-12-15T12:55:55.002Z,1013.68
2018-12-15T12:57:04.330Z,1013.66
2018-12-15T12:58:07.211Z,1013.68
2018-12-15T12:59:10.697Z,1013.62
2018-12-15T13:00:19.015Z,1013.62
2018-12-15T13:01:34.444Z,1013.60
2018-12-15T13:02:29.055Z,1013.58
2018-12-15T13:03:41.061Z,1013.60
2018-12-15T13:04:39.211Z,1013.62
2018-12-15T13:05:51.510Z,1013.72
2018-12-15T13:06:51.525Z,1013.67
2018-12-15T13:07:55.421Z,1013.72
2018-12-15T13:09:06.281Z,1013.67
2018-12-15T13:10:00.862Z,1013.67
2018-12-15T13:11:06.093Z,1013.66
2018-12-15T13:12:22.085Z,1013.63